Main page
METAR-TAF:

METAR-TAF

Airports :

Keetmanshoop Airport

Keetmanshoop, Namibia

latitude: 26-32S, longitude: 018-07E, elevation: 1067 m

Current weather observation

The report was made 26 minutes ago, at 00:00 UTC
Wind 7 kt from the Southwest
Temperature 19°C
Humidity 40%
Pressure 1016 hPa

METAR: FYKT 190000Z AUTO 23007KT //// // ////// 19/05 Q1016

Time: 02:26 (00:26 UTC)

Forecast

The report was made 2 hours and 26 minutes ago, at 22:00 UTC
Forecast valid from 19 at 00 UTC to 20 at 00 UTC
Wind 10 kt from the Southwest
Visibility 10 km or more
no clouds below 1500 m and no cumulonimbus

TAF: FYKT 182200Z 1900/2000 22010KT CAVOK

Weather observations and forecasts of more than 4000 airports (METAR and TAF reports).

The available stations are represented by yellow and red dots on the map.

Hover mouse over dot to see the name of the station.

Then click to see weather observations and forecasts.

To change the map : click on the green buttons with a black cross to zoom in, on the green button with a dash to zoom out, or on the green arrows for adjacent maps.


METAR-TAF: